Time;durP1;ratioP1;P1;durP2;ratioP2;P2;SDS_P1;SDS_P2;PMS_P1;PMS_P2;Temp;Humidity;BMP_temperature;BMP_pressure;BME280_temperature;BME280_humidity;BME280_pressure;Samples;Min_cycle;Max_cycle;Signal;HPM_P1;HPM_P2
2021/10/12 00:05:01;;;;;;;8.38;2.50;;;11.10;99.90;;;;;;6696005;88;20312;-79
2021/10/12 00:15:02;;;;;;;9.18;2.87;;;11.00;99.90;;;;;;6696096;89;20244;-79
2021/10/12 00:25:04;;;;;;;12.18;2.85;;;11.00;99.90;;;;;;6696836;89;20198;-80
2021/10/12 00:35:05;;;;;;;11.05;2.62;;;11.00;99.90;;;;;;6699148;88;20280;-78
2021/10/12 00:45:10;;;;;;;7.80;2.60;;;10.90;99.90;;;;;;6696117;89;20182;-78
2021/10/12 00:55:11;;;;;;;8.07;2.10;;;10.90;99.90;;;;;;6695649;88;20210;-80
2021/10/12 01:05:12;;;;;;;10.05;2.08;;;10.90;99.90;;;;;;6709579;88;20242;-79
2021/10/12 01:15:12;;;;;;;9.25;2.30;;;11.00;99.90;;;;;;6695775;89;20170;-79
2021/10/12 01:25:14;;;;;;;8.07;2.10;;;10.90;99.90;;;;;;6709419;88;20196;-79
2021/10/12 01:35:15;;;;;;;9.13;2.42;;;10.90;99.90;;;;;;6693982;89;20204;-79
2021/10/12 01:45:16;;;;;;;9.13;2.30;;;10.90;99.90;;;;;;6694017;89;20256;-78
2021/10/12 01:55:22;;;;;;;9.07;2.85;;;10.70;99.90;;;;;;6657733;88;20249;-78
2021/10/12 02:05:23;;;;;;;15.52;3.37;;;10.80;99.90;;;;;;6656966;89;20265;-78
2021/10/12 02:15:23;;;;;;;12.52;3.03;;;10.60;99.90;;;;;;6690291;89;20294;-78
2021/10/12 02:25:24;;;;;;;12.82;4.10;;;10.50;99.90;;;;;;6720030;87;20194;-78
2021/10/12 02:35:25;;;;;;;10.57;3.80;;;10.40;99.90;;;;;;6691245;88;20249;-80
2021/10/12 02:45:25;;;;;;;15.55;5.10;;;10.40;99.90;;;;;;6686713;89;20547;-79
2021/10/12 02:55:26;;;;;;;16.67;5.20;;;10.40;99.90;;;;;;6687707;89;20276;-79
2021/10/12 03:05:26;;;;;;;14.75;5.95;;;10.40;99.90;;;;;;6701941;88;20319;-78
2021/10/12 03:15:27;;;;;;;22.02;6.82;;;10.30;99.90;;;;;;6683319;89;20215;-78
2021/10/12 03:25:27;;;;;;;15.18;7.10;;;10.20;99.90;;;;;;6682828;88;20738;-78
2021/10/12 03:35:36;;;;;;;16.07;7.00;;;10.20;99.90;;;;;;6696885;88;20202;-78
2021/10/12 03:45:37;;;;;;;17.05;7.12;;;10.20;99.90;;;;;;6702517;88;20662;-78
2021/10/12 03:55:38;;;;;;;22.25;7.03;;;10.20;99.90;;;;;;6683291;89;20203;-77
2021/10/12 04:05:38;;;;;;;14.35;5.45;;;10.40;99.90;;;;;;6683719;89;20324;-78
2021/10/12 04:15:39;;;;;;;20.08;5.40;;;10.40;99.90;;;;;;6699987;88;20223;-78
2021/10/12 04:25:40;;;;;;;14.75;5.20;;;10.30;99.90;;;;;;6684923;89;20199;-78
2021/10/12 04:35:42;;;;;;;15.50;6.15;;;10.20;99.90;;;;;;6685701;88;20246;-77
2021/10/12 04:45:43;;;;;;;17.92;6.70;;;10.20;99.90;;;;;;6683450;89;20256;-77
2021/10/12 04:55:43;;;;;;;18.42;7.07;;;10.30;99.90;;;;;;6684249;89;20224;-78
2021/10/12 05:05:44;;;;;;;12.68;6.43;;;10.30;99.90;;;;;;6683522;89;20235;-77
2021/10/12 05:15:48;;;;;;;14.48;6.43;;;10.30;99.90;;;;;;6697857;88;20201;-77
2021/10/12 05:25:50;;;;;;;16.98;6.65;;;10.30;99.90;;;;;;6682323;89;20650;-77
2021/10/12 05:35:51;;;;;;;17.65;6.72;;;10.30;99.90;;;;;;6683406;88;20194;-77
2021/10/12 05:45:51;;;;;;;15.73;6.60;;;10.40;99.90;;;;;;6684166;88;20285;-77
2021/10/12 05:56:05;;;;;;;13.68;6.20;;;10.40;99.90;;;;;;6686383;89;20653;-77
2021/10/12 06:06:06;;;;;;;16.55;6.10;;;10.40;99.90;;;;;;6703835;88;20700;-79
2021/10/12 06:16:07;;;;;;;16.15;6.22;;;10.40;99.90;;;;;;6685389;89;20276;-78
2021/10/12 06:26:08;;;;;;;12.70;5.82;;;10.40;99.90;;;;;;6685534;89;20624;-78
2021/10/12 06:36:08;;;;;;;17.03;6.17;;;10.50;99.90;;;;;;6685635;88;20352;-78
2021/10/12 06:46:09;;;;;;;18.23;6.17;;;10.50;99.90;;;;;;6685463;89;20548;-77
2021/10/12 06:56:10;;;;;;;17.42;5.90;;;10.50;99.90;;;;;;6705133;88;20566;-78
2021/10/12 07:06:11;;;;;;;14.20;5.25;;;10.40;99.90;;;;;;6684317;88;20198;-77
2021/10/12 07:16:11;;;;;;;10.55;5.55;;;10.60;99.90;;;;;;6684487;89;20202;-76
2021/10/12 07:26:12;;;;;;;11.00;4.72;;;10.50;99.90;;;;;;6683404;88;20179;-77
2021/10/12 07:36:12;;;;;;;19.30;5.62;;;10.60;99.90;;;;;;6684335;88;20218;-77
2021/10/12 07:46:13;;;;;;;12.55;4.75;;;10.60;99.90;;;;;;6683583;89;20251;-78
2021/10/12 07:56:27;;;;;;;13.87;4.87;;;10.70;99.90;;;;;;6684126;89;20179;-78
2021/10/12 08:06:28;;;;;;;10.70;4.00;;;10.60;99.90;;;;;;6684000;88;21327;-78
2021/10/12 08:16:32;;;;;;;14.43;3.75;;;10.60;99.90;;;;;;6698575;88;20696;-77
2021/10/12 08:26:33;;;;;;;11.55;3.92;;;10.60;99.90;;;;;;6685744;89;20667;-79
2021/10/12 08:36:33;;;;;;;13.30;4.18;;;10.60;99.90;;;;;;6685355;89;20194;-78
2021/10/12 08:46:35;;;;;;;10.35;3.62;;;10.60;99.90;;;;;;6683263;89;20216;-78
2021/10/12 08:56:35;;;;;;;9.38;3.62;;;10.70;99.90;;;;;;6696041;88;20204;-78
2021/10/12 09:06:36;;;;;;;9.13;3.85;;;10.90;99.90;;;;;;6681767;89;20200;-78
2021/10/12 09:16:42;;;;;;;8.40;4.20;;;11.00;99.90;;;;;;6676543;88;20195;-78
2021/10/12 09:26:45;;;;;;;8.63;4.18;;;10.90;99.90;;;;;;6687201;89;20204;-78
2021/10/12 09:36:50;;;;;;;8.15;4.12;;;10.90;99.90;;;;;;6671743;88;20191;-78
2021/10/12 09:46:52;;;;;;;11.30;4.70;;;10.90;99.90;;;;;;6672286;88;20228;-78
2021/10/12 09:56:56;;;;;;;7.45;4.60;;;11.00;99.90;;;;;;6685657;88;20368;-78
2021/10/12 10:07:09;;;;;;;9.13;4.82;;;10.90;99.90;;;;;;6700380;88;20207;-77
2021/10/12 10:17:10;;;;;;;13.48;5.40;;;11.00;99.90;;;;;;6685125;89;20207;-77
2021/10/12 10:27:33;;;;;;;9.87;5.10;;;11.00;99.90;;;;;;6668666;89;20221;-77
2021/10/12 10:37:34;;;;;;;9.80;5.95;;;11.20;99.90;;;;;;6671946;89;20207;-78
2021/10/12 10:47:41;;;;;;;12.35;7.50;;;11.20;99.90;;;;;;6671449;88;20206;-78
2021/10/12 10:58:08;;;;;;;11.68;7.07;;;11.30;99.90;;;;;;6670865;89;20594;-78
2021/10/12 11:08:25;;;;;;;13.70;8.68;;;11.20;99.90;;;;;;6682186;88;20199;-77
2021/10/12 11:18:25;;;;;;;14.77;8.82;;;11.20;99.90;;;;;;6680482;89;20199;-77
2021/10/12 11:28:28;;;;;;;13.75;8.95;;;11.10;99.90;;;;;;6682924;88;20721;-78
2021/10/12 11:38:31;;;;;;;10.25;7.35;;;11.30;99.90;;;;;;6669170;89;20278;-78
2021/10/12 11:48:36;;;;;;;10.65;5.97;;;11.50;99.90;;;;;;6668324;89;20575;-77
2021/10/12 11:58:40;;;;;;;7.05;4.82;;;11.60;99.90;;;;;;6668802;89;20224;-77
2021/10/12 12:08:41;;;;;;;7.63;5.30;;;11.60;99.90;;;;;;6668950;89;20215;-78
2021/10/12 12:18:42;;;;;;;10.40;5.97;;;11.50;99.90;;;;;;6675053;89;20203;-78
2021/10/12 12:28:42;;;;;;;14.20;7.50;;;11.40;99.90;;;;;;6668715;88;20194;-78
2021/10/12 12:38:44;;;;;;;15.82;8.75;;;11.40;99.90;;;;;;6682636;88;20231;-78
2021/10/12 12:48:48;;;;;;;17.12;8.32;;;11.50;99.90;;;;;;6685987;88;20182;-78
2021/10/12 12:58:48;;;;;;;13.50;9.10;;;11.60;99.90;;;;;;6669740;88;20307;-77
2021/10/12 13:08:54;;;;;;;12.18;7.20;;;11.90;99.90;;;;;;6668208;88;20253;-79
2021/10/12 13:18:55;;;;;;;8.60;5.72;;;12.10;99.90;;;;;;6674499;89;20191;-77
2021/10/12 13:28:57;;;;;;;7.47;5.00;;;12.50;99.90;;;;;;6671109;88;20231;-78
2021/10/12 13:38:58;;;;;;;5.18;4.03;;;12.50;99.90;;;;;;6666814;88;20199;-79
2021/10/12 13:48:58;;;;;;;7.00;3.87;;;12.60;99.90;;;;;;6665584;89;20764;-80
2021/10/12 13:58:59;;;;;;;5.18;3.70;;;12.90;99.90;;;;;;6663643;89;20187;-78
2021/10/12 14:08:59;;;;;;;6.00;3.70;;;13.00;99.90;;;;;;6665519;89;20198;-77
2021/10/12 14:19:00;;;;;;;7.78;3.83;;;12.90;99.90;;;;;;6680824;88;20195;-78
2021/10/12 14:29:00;;;;;;;5.47;3.28;;;12.70;99.90;;;;;;6665842;89;20227;-77
2021/10/12 14:39:01;;;;;;;4.20;3.00;;;12.80;99.90;;;;;;6665554;89;20175;-77
2021/10/12 14:49:02;;;;;;;5.10;3.30;;;12.90;99.90;;;;;;6665678;89;20194;-78
2021/10/12 14:59:02;;;;;;;4.95;3.17;;;12.80;99.90;;;;;;6665650;88;20592;-78
2021/10/12 15:09:04;;;;;;;6.62;3.10;;;12.80;99.90;;;;;;6666790;89;20743;-78
2021/10/12 15:19:05;;;;;;;7.55;4.30;;;12.30;99.90;;;;;;6672909;89;20199;-79
2021/10/12 15:29:05;;;;;;;5.18;3.17;;;12.00;99.90;;;;;;6665865;89;20562;-79
2021/10/12 15:39:22;;;;;;;3.58;2.03;;;11.80;99.90;;;;;;6668261;89;20207;-77
2021/10/12 15:49:23;;;;;;;8.52;2.20;;;11.60;99.90;;;;;;6667068;89;20316;-77
2021/10/12 15:59:25;;;;;;;6.65;2.78;;;11.50;99.90;;;;;;6685644;88;20187;-77
2021/10/12 16:09:26;;;;;;;3.92;2.08;;;11.60;99.90;;;;;;6682462;88;20183;-78
2021/10/12 16:29:31;;;;;;;4.37;2.42;;;11.30;99.90;;;;;;6685918;88;20209;-78
2021/10/12 16:39:34;;;;;;;6.18;2.30;;;11.10;99.90;;;;;;6700993;88;20313;-77
2021/10/12 16:49:35;;;;;;;6.78;2.50;;;11.00;99.90;;;;;;6682502;87;20183;-77
2021/10/12 16:59:37;;;;;;;6.43;2.75;;;10.80;99.90;;;;;;6681395;89;20606;-78
2021/10/12 17:09:37;;;;;;;6.95;2.20;;;10.80;99.90;;;;;;6680685;88;20333;-77
2021/10/12 17:19:38;;;;;;;6.45;2.20;;;10.80;99.90;;;;;;6694172;88;20665;-77
2021/10/12 17:29:38;;;;;;;5.72;2.65;;;10.50;99.90;;;;;;6694553;88;20216;-78
2021/10/12 17:39:39;;;;;;;6.93;2.55;;;10.40;99.90;;;;;;6681020;88;20232;-78
2021/10/12 17:49:40;;;;;;;9.60;3.92;;;10.20;99.90;;;;;;6682778;88;20207;-78
2021/10/12 17:59:41;;;;;;;8.50;3.40;;;9.90;99.90;;;;;;6683340;88;20341;-77
2021/10/12 18:09:44;;;;;;;6.75;3.50;;;9.70;99.90;;;;;;6683415;88;20741;-77
2021/10/12 18:19:45;;;;;;;7.68;3.92;;;9.50;99.90;;;;;;6686227;88;20690;-78
2021/10/12 18:29:45;;;;;;;8.32;4.20;;;9.30;99.90;;;;;;6688701;89;20194;-76
2021/10/12 18:39:46;;;;;;;8.55;4.40;;;9.10;99.90;;;;;;6682455;89;20260;-77
2021/10/12 18:49:46;;;;;;;7.53;4.50;;;9.10;99.90;;;;;;6682505;88;20212;-78
2021/10/12 18:59:47;;;;;;;11.15;5.10;;;8.80;99.90;;;;;;6682778;88;20549;-78
2021/10/12 19:09:47;;;;;;;11.32;4.50;;;8.70;99.90;;;;;;6683624;89;20750;-77
2021/10/12 19:19:49;;;;;;;9.75;4.78;;;8.60;99.90;;;;;;6682650;89;20221;-77
2021/10/12 19:29:50;;;;;;;8.68;4.10;;;8.60;99.90;;;;;;6696042;88;20218;-77
2021/10/12 19:39:50;;;;;;;6.93;3.58;;;8.40;99.90;;;;;;6681170;89;20211;-78
2021/10/12 19:49:51;;;;;;;11.73;3.70;;;8.40;99.90;;;;;;6684109;89;20194;-77
2021/10/12 19:59:51;;;;;;;9.15;3.42;;;8.30;99.90;;;;;;6686832;88;20361;-76
2021/10/12 20:09:52;;;;;;;8.85;3.62;;;8.20;99.90;;;;;;6683498;89;20978;-77
2021/10/12 20:20:09;;;;;;;8.82;3.50;;;8.10;99.90;;;;;;6683346;88;20299;-77
2021/10/12 20:30:10;;;;;;;10.30;3.83;;;8.00;99.90;;;;;;6696868;88;20210;-77
2021/10/12 20:40:11;;;;;;;11.60;4.22;;;8.00;99.90;;;;;;6682206;88;20193;-78
2021/10/12 20:50:11;;;;;;;9.32;4.25;;;8.00;99.90;;;;;;6689761;88;20711;-77
2021/10/12 21:00:12;;;;;;;11.18;4.32;;;7.90;99.90;;;;;;6701807;88;20215;-77
2021/10/12 21:10:13;;;;;;;13.38;4.68;;;7.80;99.90;;;;;;6670962;88;20175;-77
2021/10/12 21:20:14;;;;;;;8.13;3.85;;;7.70;99.90;;;;;;6678829;88;21042;-77
2021/10/12 21:30:14;;;;;;;8.63;3.92;;;7.60;99.90;;;;;;6694414;89;20354;-77
2021/10/12 21:40:15;;;;;;;9.15;3.42;;;7.60;99.90;;;;;;6685673;89;21046;-76
2021/10/12 21:50:15;;;;;;;8.60;3.10;;;7.60;99.90;;;;;;6685014;89;20635;-77
2021/10/12 22:00:17;;;;;;;9.27;3.20;;;7.50;99.90;;;;;;6685896;89;20595;-76
2021/10/12 22:10:17;;;;;;;10.77;2.75;;;7.50;99.90;;;;;;6667290;89;20701;-77
2021/10/12 22:20:18;;;;;;;8.93;2.78;;;7.60;99.90;;;;;;6664082;89;20243;-77
2021/10/12 22:30:19;;;;;;;9.07;2.60;;;7.50;99.90;;;;;;6665358;89;20455;-77
2021/10/12 22:40:19;;;;;;;9.23;2.92;;;7.60;99.90;;;;;;6665458;89;20622;-77
2021/10/12 22:50:20;;;;;;;7.05;2.67;;;7.60;99.90;;;;;;6665722;88;20216;-77
2021/10/12 23:00:21;;;;;;;7.20;2.53;;;7.40;99.90;;;;;;6666298;89;20760;-77
2021/10/12 23:10:22;;;;;;;8.70;2.80;;;7.20;99.90;;;;;;6669609;89;20686;-77
2021/10/12 23:20:22;;;;;;;10.80;3.10;;;7.20;99.90;;;;;;6664926;89;20191;-78
2021/10/12 23:30:23;;;;;;;5.93;2.70;;;7.20;99.90;;;;;;6664763;89;20195;-76
2021/10/12 23:40:24;;;;;;;10.73;2.65;;;7.10;99.90;;;;;;6664928;89;20211;-77
2021/10/12 23:50:24;;;;;;;8.35;2.40;;;7.00;99.90;;;;;;6678572;88;20879;-77
